Time;durP1;ratioP1;P1;durP2;ratioP2;P2;SDS_P1;SDS_P2;PMS_P1;PMS_P2;Temp;Humidity;BMP_temperature;BMP_pressure;BME280_temperature;BME280_humidity;BME280_pressure;Samples;Min_cycle;Max_cycle;Signal;HPM_P1;HPM_P2
2022/03/03 00:01:19;;;;;;;116.35;54.25;;;;;;;;;;5080414;28;20208;-95
2022/03/03 00:03:45;;;;;;;117.00;54.38;;;;;;;;;;5080780;28;20739;-94
2022/03/03 00:06:12;;;;;;;119.90;56.40;;;;;;;;;;5080946;28;20587;-92
2022/03/03 00:08:40;;;;;;;115.88;53.67;;;;;;;;;;5083372;28;20950;-92
2022/03/03 00:11:06;;;;;;;121.07;54.47;;;;;;;;;;5084843;28;20223;-92
2022/03/03 00:13:33;;;;;;;121.07;54.17;;;;;;;;;;5083714;28;20200;-93
2022/03/03 00:16:02;;;;;;;116.97;55.33;;;;;;;;;;5084849;28;20655;-96
2022/03/03 00:18:28;;;;;;;121.50;57.17;;;;;;;;;;5083268;28;20204;-94
2022/03/03 00:20:55;;;;;;;121.55;56.60;;;;;;;;;;5085114;28;20226;-96
2022/03/03 00:23:21;;;;;;;117.65;54.10;;;;;;;;;;5083231;28;20199;-93
2022/03/03 00:25:49;;;;;;;124.80;56.55;;;;;;;;;;5085221;28;20214;-93
2022/03/03 00:28:16;;;;;;;123.03;55.80;;;;;;;;;;5082541;28;20196;-96
2022/03/03 00:30:42;;;;;;;117.25;54.55;;;;;;;;;;5081558;28;20227;-96
2022/03/03 00:33:09;;;;;;;123.80;56.55;;;;;;;;;;5084586;28;20249;-94
2022/03/03 00:35:35;;;;;;;126.40;57.40;;;;;;;;;;5084783;28;20211;-95
2022/03/03 00:38:02;;;;;;;123.07;56.28;;;;;;;;;;5085063;28;20223;-94
2022/03/03 00:40:28;;;;;;;118.05;53.92;;;;;;;;;;5085062;28;20207;-94
2022/03/03 00:42:56;;;;;;;123.40;57.00;;;;;;;;;;5084926;28;20195;-95
2022/03/03 00:45:23;;;;;;;126.05;56.30;;;;;;;;;;5081787;28;20261;-95
2022/03/03 00:47:50;;;;;;;120.03;56.20;;;;;;;;;;5084370;28;20271;-96
2022/03/03 00:50:16;;;;;;;125.07;56.30;;;;;;;;;;5084192;28;20227;-96
2022/03/03 00:52:43;;;;;;;125.15;55.47;;;;;;;;;;5083362;28;20207;-96
2022/03/03 00:55:10;;;;;;;127.57;56.58;;;;;;;;;;5084040;28;20225;-96
2022/03/03 00:57:36;;;;;;;122.80;56.55;;;;;;;;;;5084783;28;20195;-96
2022/03/03 01:00:05;;;;;;;123.70;54.88;;;;;;;;;;5085419;28;20760;-96
2022/03/03 01:02:32;;;;;;;126.55;58.30;;;;;;;;;;5080179;28;20195;-96
2022/03/03 01:04:58;;;;;;;126.68;57.10;;;;;;;;;;5083249;28;20662;-96
2022/03/03 01:07:25;;;;;;;130.43;56.50;;;;;;;;;;5084125;28;20284;-95
2022/03/03 01:09:51;;;;;;;122.20;56.28;;;;;;;;;;5083979;28;20199;-95
2022/03/03 01:12:18;;;;;;;121.80;56.53;;;;;;;;;;5085260;28;20218;-96
2022/03/03 01:14:44;;;;;;;121.45;56.35;;;;;;;;;;5084537;28;20199;-95
2022/03/03 01:17:13;;;;;;;122.15;56.35;;;;;;;;;;5082648;28;20195;-94
2022/03/03 01:19:40;;;;;;;130.18;57.67;;;;;;;;;;5079142;28;20207;-95
2022/03/03 01:22:06;;;;;;;118.88;56.05;;;;;;;;;;5081548;28;20195;-94
2022/03/03 01:24:33;;;;;;;121.07;55.20;;;;;;;;;;5083159;28;20213;-95
2022/03/03 01:26:59;;;;;;;121.00;55.13;;;;;;;;;;5084499;28;20199;-95
2022/03/03 01:29:26;;;;;;;121.03;56.60;;;;;;;;;;5084591;28;20198;-96
2022/03/03 01:31:52;;;;;;;122.18;55.83;;;;;;;;;;5083785;28;20231;-94
2022/03/03 01:34:20;;;;;;;133.95;58.85;;;;;;;;;;5082953;28;20203;-94
2022/03/03 01:36:46;;;;;;;120.57;56.05;;;;;;;;;;5082386;28;20199;-95
2022/03/03 01:39:13;;;;;;;126.05;55.47;;;;;;;;;;5081502;28;20203;-95
2022/03/03 01:41:40;;;;;;;123.55;57.33;;;;;;;;;;5084079;28;20203;-95
2022/03/03 01:44:07;;;;;;;122.15;55.40;;;;;;;;;;5084346;28;20556;-93
2022/03/03 01:46:33;;;;;;;122.78;56.83;;;;;;;;;;5082795;28;20203;-94
2022/03/03 01:49:00;;;;;;;122.70;56.30;;;;;;;;;;5081866;28;20207;-95
2022/03/03 01:51:28;;;;;;;125.47;57.63;;;;;;;;;;5081842;28;20223;-96
2022/03/03 01:53:55;;;;;;;116.43;56.10;;;;;;;;;;5082416;28;20257;-96
2022/03/03 01:56:21;;;;;;;123.05;55.53;;;;;;;;;;5080124;28;20199;-96
2022/03/03 01:58:48;;;;;;;115.63;54.92;;;;;;;;;;5083570;28;20228;-95
2022/03/03 02:01:15;;;;;;;126.43;55.00;;;;;;;;;;5083483;28;20196;-95
2022/03/03 02:03:42;;;;;;;119.85;55.00;;;;;;;;;;5083480;28;20195;-96
2022/03/03 02:06:08;;;;;;;124.05;55.70;;;;;;;;;;5083265;28;20226;-96
2022/03/03 02:08:36;;;;;;;125.63;57.38;;;;;;;;;;5082705;28;20225;-94
2022/03/03 02:11:03;;;;;;;123.60;56.33;;;;;;;;;;5080389;28;20238;-96
2022/03/03 02:13:29;;;;;;;120.07;55.85;;;;;;;;;;5083210;28;20857;-96
2022/03/03 02:15:56;;;;;;;123.65;57.03;;;;;;;;;;5083073;28;20199;-95
2022/03/03 02:18:23;;;;;;;124.18;57.15;;;;;;;;;;5083308;28;20200;-95
2022/03/03 02:20:51;;;;;;;122.68;58.13;;;;;;;;;;5082930;28;20203;-95
2022/03/03 02:23:18;;;;;;;121.30;56.70;;;;;;;;;;5082508;28;20225;-94
2022/03/03 02:25:46;;;;;;;125.45;58.33;;;;;;;;;;5082171;28;20205;-95
2022/03/03 02:28:12;;;;;;;124.68;56.92;;;;;;;;;;5078583;28;20907;-94
2022/03/03 02:30:39;;;;;;;124.90;56.22;;;;;;;;;;5081761;28;20226;-95
2022/03/03 02:33:05;;;;;;;124.18;56.00;;;;;;;;;;5081615;28;20196;-96
2022/03/03 02:35:32;;;;;;;130.90;56.72;;;;;;;;;;5082031;28;20199;-96
2022/03/03 02:38:00;;;;;;;127.97;57.85;;;;;;;;;;5079908;28;20226;-96
2022/03/03 02:40:26;;;;;;;135.13;57.05;;;;;;;;;;5082206;28;20210;-96
2022/03/03 02:42:53;;;;;;;125.72;57.20;;;;;;;;;;5082511;28;20222;-96
2022/03/03 02:45:20;;;;;;;119.85;56.05;;;;;;;;;;5079681;28;20199;-96
2022/03/03 02:47:47;;;;;;;124.95;58.17;;;;;;;;;;5081606;28;20237;-96
2022/03/03 02:50:15;;;;;;;123.95;56.15;;;;;;;;;;5082194;28;20207;-94
2022/03/03 02:52:41;;;;;;;123.57;55.80;;;;;;;;;;5082920;28;20562;-95
2022/03/03 02:55:10;;;;;;;129.75;58.17;;;;;;;;;;5083082;28;20203;-95
2022/03/03 02:57:56;;;;;;;127.80;58.08;;;;;;;;;;5083060;28;20203;-95
2022/03/03 03:00:22;;;;;;;124.18;56.53;;;;;;;;;;5083202;28;20218;-94
2022/03/03 03:02:49;;;;;;;122.25;57.10;;;;;;;;;;5080131;28;20254;-96
2022/03/03 03:05:15;;;;;;;121.63;57.25;;;;;;;;;;5082858;28;20298;-95
2022/03/03 03:07:42;;;;;;;123.00;56.88;;;;;;;;;;5082802;28;20203;-95
2022/03/03 03:10:10;;;;;;;130.55;59.10;;;;;;;;;;5082549;28;20195;-95
2022/03/03 03:12:36;;;;;;;122.57;57.78;;;;;;;;;;5083025;28;20227;-95
2022/03/03 03:15:03;;;;;;;118.80;56.90;;;;;;;;;;5082338;28;20271;-96
2022/03/03 03:17:30;;;;;;;126.10;58.13;;;;;;;;;;5082508;28;20284;-96
2022/03/03 03:19:56;;;;;;;124.20;56.50;;;;;;;;;;5081309;28;20199;-96
2022/03/03 03:22:23;;;;;;;121.20;56.97;;;;;;;;;;5081043;28;20234;-95
2022/03/03 03:24:49;;;;;;;126.43;58.75;;;;;;;;;;5076080;28;20831;-95
2022/03/03 03:27:17;;;;;;;123.63;57.60;;;;;;;;;;5074931;28;20203;-95
2022/03/03 03:29:43;;;;;;;125.38;57.80;;;;;;;;;;5076912;28;20221;-95
2022/03/03 03:32:10;;;;;;;125.15;57.03;;;;;;;;;;5080009;28;20697;-96
2022/03/03 03:34:36;;;;;;;133.45;57.85;;;;;;;;;;5079290;28;20249;-95
2022/03/03 03:37:03;;;;;;;130.90;61.70;;;;;;;;;;5072551;28;20296;-95
2022/03/03 03:39:30;;;;;;;136.20;61.95;;;;;;;;;;5075807;28;20195;-95
2022/03/03 03:41:56;;;;;;;131.63;60.92;;;;;;;;;;5080515;28;20734;-95
2022/03/03 03:44:24;;;;;;;130.85;59.63;;;;;;;;;;5080345;28;20203;-96
2022/03/03 03:46:50;;;;;;;123.50;57.15;;;;;;;;;;5082792;28;20438;-94
2022/03/03 03:49:17;;;;;;;125.72;58.80;;;;;;;;;;5082666;28;20205;-95
2022/03/03 03:51:43;;;;;;;125.03;57.40;;;;;;;;;;5084549;28;20227;-95
2022/03/03 03:54:10;;;;;;;121.65;55.97;;;;;;;;;;5083041;28;20221;-94
2022/03/03 03:56:36;;;;;;;122.70;55.80;;;;;;;;;;5085459;28;20202;-94
2022/03/03 03:59:03;;;;;;;121.53;56.30;;;;;;;;;;5084694;28;20215;-95
2022/03/03 04:01:31;;;;;;;119.55;55.88;;;;;;;;;;5084790;28;20203;-96
2022/03/03 04:03:58;;;;;;;122.43;56.15;;;;;;;;;;5073081;28;20203;-96
2022/03/03 04:06:24;;;;;;;125.00;57.05;;;;;;;;;;5063689;28;20200;-96
2022/03/03 04:08:51;;;;;;;123.03;56.83;;;;;;;;;;5062810;28;20196;-95
2022/03/03 04:11:17;;;;;;;118.75;54.80;;;;;;;;;;5065646;28;20288;-95
2022/03/03 04:13:44;;;;;;;119.18;56.17;;;;;;;;;;5084678;28;20204;-95
2022/03/03 04:16:11;;;;;;;121.45;56.75;;;;;;;;;;5085212;28;20191;-95
2022/03/03 04:18:39;;;;;;;124.60;56.28;;;;;;;;;;5084636;28;20200;-96
2022/03/03 04:21:06;;;;;;;122.72;55.58;;;;;;;;;;5084754;28;20207;-95
2022/03/03 04:23:32;;;;;;;130.27;57.97;;;;;;;;;;5084775;28;20266;-96
2022/03/03 04:25:59;;;;;;;119.60;57.10;;;;;;;;;;5084181;28;20221;-95
2022/03/03 04:28:25;;;;;;;120.85;57.67;;;;;;;;;;5083931;28;20783;-96
2022/03/03 04:30:52;;;;;;;127.07;57.95;;;;;;;;;;5078898;28;20199;-95
2022/03/03 04:33:18;;;;;;;120.55;57.67;;;;;;;;;;5083757;28;20257;-95
2022/03/03 04:35:46;;;;;;;121.35;56.35;;;;;;;;;;5083938;28;20192;-96
2022/03/03 04:38:12;;;;;;;126.32;57.22;;;;;;;;;;5084772;28;20232;-96
2022/03/03 04:40:39;;;;;;;120.57;56.65;;;;;;;;;;5084666;28;20230;-95
2022/03/03 04:43:05;;;;;;;128.15;57.80;;;;;;;;;;5085181;28;20233;-95
2022/03/03 04:45:32;;;;;;;120.00;56.17;;;;;;;;;;5084938;28;20297;-95
2022/03/03 04:47:59;;;;;;;125.03;57.30;;;;;;;;;;5081693;28;20207;-96
2022/03/03 04:50:25;;;;;;;125.30;56.72;;;;;;;;;;5084074;28;20203;-96
2022/03/03 04:52:53;;;;;;;120.78;56.55;;;;;;;;;;5084313;28;20235;-95
2022/03/03 04:55:19;;;;;;;129.43;56.03;;;;;;;;;;5084968;28;20200;-96
2022/03/03 04:57:46;;;;;;;122.35;56.78;;;;;;;;;;5082558;28;20284;-95
2022/03/03 05:00:13;;;;;;;125.75;57.67;;;;;;;;;;5082623;28;20249;-96
2022/03/03 05:02:39;;;;;;;128.25;58.95;;;;;;;;;;5082732;28;20218;-94
2022/03/03 05:05:06;;;;;;;126.40;58.88;;;;;;;;;;5079194;28;20195;-95
2022/03/03 05:07:32;;;;;;;120.15;56.55;;;;;;;;;;5085180;28;20271;-95
2022/03/03 05:13:08;;;;;;;126.20;58.05;;;;;;;;;;5487617;22;20256;-94
2022/03/03 05:15:35;;;;;;;126.50;58.70;;;;;;;;;;5062863;28;20231;-94
2022/03/03 05:18:01;;;;;;;120.10;56.60;;;;;;;;;;5068651;28;20192;-96
2022/03/03 05:20:28;;;;;;;124.15;57.85;;;;;;;;;;5078384;28;20195;-96
2022/03/03 05:22:54;;;;;;;126.35;58.42;;;;;;;;;;5060032;28;20223;-96
2022/03/03 05:25:21;;;;;;;129.40;58.47;;;;;;;;;;5062319;28;20200;-96
2022/03/03 05:27:47;;;;;;;131.52;60.53;;;;;;;;;;5047831;28;20205;-96
2022/03/03 05:30:15;;;;;;;128.15;57.50;;;;;;;;;;5042234;28;20205;-96
2022/03/03 05:32:42;;;;;;;137.50;61.22;;;;;;;;;;5043042;28;20224;-96
2022/03/03 05:35:08;;;;;;;133.38;60.15;;;;;;;;;;5069031;28;20195;-95
2022/03/03 05:37:35;;;;;;;128.60;59.17;;;;;;;;;;5084441;28;20203;-96
2022/03/03 05:40:02;;;;;;;138.70;62.45;;;;;;;;;;5071353;28;20299;-95
2022/03/03 05:42:29;;;;;;;133.07;62.55;;;;;;;;;;5082721;28;20195;-95
2022/03/03 05:44:55;;;;;;;139.60;65.72;;;;;;;;;;5056506;28;20232;-95
2022/03/03 05:47:27;;;;;;;137.18;63.03;;;;;;;;;;5041428;28;20228;-95
2022/03/03 05:49:55;;;;;;;129.90;61.03;;;;;;;;;;5060440;28;20200;-95
2022/03/03 05:52:25;;;;;;;135.18;60.95;;;;;;;;;;5067490;28;20246;-96
2022/03/03 05:54:52;;;;;;;139.52;65.72;;;;;;;;;;5067255;28;20204;-96
2022/03/03 05:57:20;;;;;;;136.55;62.65;;;;;;;;;;5059016;28;20717;-96
2022/03/03 05:59:47;;;;;;;135.73;64.63;;;;;;;;;;5063300;28;20211;-96
2022/03/03 06:02:14;;;;;;;126.28;57.70;;;;;;;;;;5063993;28;20200;-93
2022/03/03 06:04:42;;;;;;;139.55;67.18;;;;;;;;;;5058670;28;20200;-95
2022/03/03 06:07:09;;;;;;;134.52;62.45;;;;;;;;;;5059576;28;20200;-94
2022/03/03 06:09:36;;;;;;;137.02;63.58;;;;;;;;;;5062789;28;20204;-93
2022/03/03 06:12:06;;;;;;;134.95;60.88;;;;;;;;;;5050599;28;20676;-94
2022/03/03 06:14:37;;;;;;;130.00;61.97;;;;;;;;;;5058922;28;20232;-94
2022/03/03 06:17:04;;;;;;;138.50;63.78;;;;;;;;;;5062906;28;20196;-93
2022/03/03 06:19:31;;;;;;;139.20;66.43;;;;;;;;;;5062097;28;20204;-94
2022/03/03 06:21:59;;;;;;;133.57;62.88;;;;;;;;;;5062486;28;20235;-94
2022/03/03 06:24:26;;;;;;;140.68;64.15;;;;;;;;;;5041828;28;20197;-92
2022/03/03 06:26:53;;;;;;;133.63;60.97;;;;;;;;;;5045720;28;20196;-96
2022/03/03 06:29:23;;;;;;;131.15;58.55;;;;;;;;;;5064467;28;20200;-95
2022/03/03 06:31:51;;;;;;;128.20;59.22;;;;;;;;;;5064125;28;20235;-96
2022/03/03 06:34:20;;;;;;;130.05;59.70;;;;;;;;;;5064005;28;20226;-95
2022/03/03 06:36:46;;;;;;;122.55;56.03;;;;;;;;;;5071055;28;20354;-95
2022/03/03 06:39:14;;;;;;;124.88;57.05;;;;;;;;;;5077211;28;20195;-95
2022/03/03 06:41:41;;;;;;;127.40;57.58;;;;;;;;;;5083472;28;20199;-96
2022/03/03 06:44:08;;;;;;;131.13;59.47;;;;;;;;;;5063737;28;20200;-95
2022/03/03 06:46:35;;;;;;;125.22;57.17;;;;;;;;;;5065161;28;20200;-95
2022/03/03 06:49:02;;;;;;;126.00;58.17;;;;;;;;;;5065211;28;20200;-95
2022/03/03 06:51:29;;;;;;;119.85;56.17;;;;;;;;;;5076833;28;20265;-96
2022/03/03 06:53:56;;;;;;;124.10;57.75;;;;;;;;;;5084350;28;20253;-95
2022/03/03 06:56:25;;;;;;;120.70;56.45;;;;;;;;;;5070637;28;20259;-96
2022/03/03 06:58:53;;;;;;;134.18;59.53;;;;;;;;;;5061288;28;20227;-95
2022/03/03 07:01:21;;;;;;;121.53;56.03;;;;;;;;;;5064689;28;20223;-96
2022/03/03 07:03:47;;;;;;;132.65;62.20;;;;;;;;;;5061995;28;20215;-96
2022/03/03 07:06:14;;;;;;;137.65;60.78;;;;;;;;;;5064192;28;20231;-96
2022/03/03 07:08:43;;;;;;;124.80;57.60;;;;;;;;;;5063332;28;20209;-96
2022/03/03 07:11:11;;;;;;;134.80;61.15;;;;;;;;;;5055335;28;20219;-96
2022/03/03 07:13:39;;;;;;;138.93;62.95;;;;;;;;;;5060512;28;20232;-96
2022/03/03 07:16:22;;;;;;;130.65;58.85;;;;;;;;;;5049091;28;20203;-95
2022/03/03 07:18:50;;;;;;;132.00;60.65;;;;;;;;;;5058693;28;20207;-96
2022/03/03 07:21:20;;;;;;;129.95;59.45;;;;;;;;;;5078097;28;20195;-96
2022/03/03 07:23:48;;;;;;;129.68;59.28;;;;;;;;;;5079967;28;20211;-95
2022/03/03 07:26:16;;;;;;;137.57;61.10;;;;;;;;;;5071057;28;20203;-94
2022/03/03 07:28:46;;;;;;;124.05;56.72;;;;;;;;;;5061952;28;20266;-96
2022/03/03 07:31:16;;;;;;;127.55;58.33;;;;;;;;;;5060331;28;20199;-93
2022/03/03 07:33:48;;;;;;;130.73;59.25;;;;;;;;;;5061624;28;20228;-94
2022/03/03 07:36:17;;;;;;;128.50;57.88;;;;;;;;;;5062818;28;20207;-96
2022/03/03 07:38:47;;;;;;;128.05;57.88;;;;;;;;;;5060752;28;20264;-95
2022/03/03 07:41:14;;;;;;;130.38;58.25;;;;;;;;;;5062513;28;20204;-95
2022/03/03 07:43:41;;;;;;;132.02;62.47;;;;;;;;;;5063967;28;20207;-93
2022/03/03 07:46:09;;;;;;;128.52;58.58;;;;;;;;;;5064934;28;20207;-96
2022/03/03 07:48:35;;;;;;;135.82;59.80;;;;;;;;;;5074371;28;20200;-96
2022/03/03 07:51:02;;;;;;;144.20;62.00;;;;;;;;;;5062646;28;20207;-96
2022/03/03 07:53:28;;;;;;;199.75;66.38;;;;;;;;;;5084228;28;20231;-96
2022/03/03 07:55:57;;;;;;;153.95;58.65;;;;;;;;;;5083203;28;20199;-95
2022/03/03 07:58:28;;;;;;;168.63;59.42;;;;;;;;;;5080957;28;20204;-91
2022/03/03 08:00:57;;;;;;;208.20;67.10;;;;;;;;;;5080992;28;20226;-91
2022/03/03 08:03:25;;;;;;;153.27;57.13;;;;;;;;;;5076883;28;20203;-91
2022/03/03 08:05:53;;;;;;;161.23;61.20;;;;;;;;;;5062456;28;20230;-96
2022/03/03 08:08:22;;;;;;;165.85;62.05;;;;;;;;;;5063907;28;20203;-95
2022/03/03 08:10:49;;;;;;;193.50;66.70;;;;;;;;;;5063421;28;20227;-96
2022/03/03 08:13:17;;;;;;;168.02;62.47;;;;;;;;;;5063400;28;20228;-94
2022/03/03 08:15:44;;;;;;;168.65;64.88;;;;;;;;;;5063131;28;20270;-95
2022/03/03 08:18:11;;;;;;;204.35;65.78;;;;;;;;;;5062145;28;20212;-90
2022/03/03 08:20:39;;;;;;;151.10;61.28;;;;;;;;;;5063144;28;20239;-96
2022/03/03 08:23:09;;;;;;;155.98;64.80;;;;;;;;;;5063158;28;20200;-96
2022/03/03 08:25:36;;;;;;;161.40;64.72;;;;;;;;;;5061542;28;20246;-93
2022/03/03 08:28:03;;;;;;;155.18;63.92;;;;;;;;;;5062487;28;20218;-95
2022/03/03 08:30:30;;;;;;;155.43;64.60;;;;;;;;;;5065981;28;20204;-93
2022/03/03 08:33:00;;;;;;;153.25;61.70;;;;;;;;;;5058052;28;20580;-96
2022/03/03 08:35:27;;;;;;;154.98;60.00;;;;;;;;;;5057152;28;20189;-96
2022/03/03 08:38:01;;;;;;;149.00;58.10;;;;;;;;;;5043864;28;20232;-95
2022/03/03 08:40:28;;;;;;;161.35;63.33;;;;;;;;;;5044620;28;20231;-94
2022/03/03 08:42:57;;;;;;;154.27;60.78;;;;;;;;;;5046133;28;20235;-96
2022/03/03 08:45:28;;;;;;;154.07;59.40;;;;;;;;;;5045588;28;20201;-91
2022/03/03 08:47:56;;;;;;;165.48;62.47;;;;;;;;;;5044769;28;20197;-96
2022/03/03 08:50:27;;;;;;;165.65;62.67;;;;;;;;;;5063189;28;20402;-96
2022/03/03 08:52:54;;;;;;;154.60;59.63;;;;;;;;;;5064564;28;20259;-94
2022/03/03 08:55:22;;;;;;;169.07;64.30;;;;;;;;;;5063315;28;20188;-94
2022/03/03 08:57:50;;;;;;;178.40;66.60;;;;;;;;;;5065918;28;20560;-96
2022/03/03 09:00:17;;;;;;;180.07;64.20;;;;;;;;;;5066940;28;20238;-95
2022/03/03 09:02:44;;;;;;;183.00;65.18;;;;;;;;;;5057931;28;20189;-96
2022/03/03 09:05:14;;;;;;;182.18;63.08;;;;;;;;;;5067334;28;20204;-95
2022/03/03 09:07:41;;;;;;;192.80;69.78;;;;;;;;;;5064697;28;20223;-96
2022/03/03 09:10:11;;;;;;;203.35;69.22;;;;;;;;;;5068275;28;20192;-96
2022/03/03 09:12:39;;;;;;;215.65;63.67;;;;;;;;;;5065602;28;20232;-96
2022/03/03 09:15:07;;;;;;;207.25;66.75;;;;;;;;;;5059813;28;20201;-92
2022/03/03 09:17:34;;;;;;;200.15;66.22;;;;;;;;;;5068612;28;20197;-96
2022/03/03 09:20:00;;;;;;;190.95;61.90;;;;;;;;;;5061695;28;20196;-94
2022/03/03 09:22:28;;;;;;;192.90;62.80;;;;;;;;;;5059960;28;20200;-95
2022/03/03 09:24:55;;;;;;;212.48;68.10;;;;;;;;;;5045088;28;20189;-94
2022/03/03 09:27:22;;;;;;;213.82;68.72;;;;;;;;;;5057560;28;20193;-95
2022/03/03 09:29:51;;;;;;;442.23;95.15;;;;;;;;;;5068825;28;20243;-96
2022/03/03 09:32:17;;;;;;;178.85;66.43;;;;;;;;;;5076519;28;20207;-94
2022/03/03 09:34:45;;;;;;;196.40;68.18;;;;;;;;;;5060530;28;20196;-90
2022/03/03 09:37:11;;;;;;;201.50;65.60;;;;;;;;;;5060829;28;20235;-93
2022/03/03 09:39:38;;;;;;;191.68;67.65;;;;;;;;;;5060676;28;20192;-91
2022/03/03 09:42:04;;;;;;;196.32;64.60;;;;;;;;;;5046714;28;20219;-92
2022/03/03 09:44:31;;;;;;;259.08;74.40;;;;;;;;;;5060481;28;20338;-96
2022/03/03 09:47:00;;;;;;;285.58;76.70;;;;;;;;;;5064856;28;20269;-94
2022/03/03 09:49:26;;;;;;;137.70;59.57;;;;;;;;;;5063780;28;20223;-93
2022/03/03 09:51:53;;;;;;;136.27;59.70;;;;;;;;;;5055131;28;20451;-96
2022/03/03 09:54:19;;;;;;;138.07;62.00;;;;;;;;;;5043749;28;20514;-92
2022/03/03 09:56:46;;;;;;;139.70;61.60;;;;;;;;;;5061138;28;20471;-96
2022/03/03 09:59:13;;;;;;;145.37;65.20;;;;;;;;;;5058335;28;20545;-93
2022/03/03 10:01:40;;;;;;;134.63;60.67;;;;;;;;;;5063355;28;20450;-92
2022/03/03 10:04:18;;;;;;;137.20;60.10;;;;;;;;;;5053008;28;20446;-92
2022/03/03 10:06:44;;;;;;;138.90;62.60;;;;;;;;;;5073826;28;20440;-91
2022/03/03 10:09:11;;;;;;;136.97;59.97;;;;;;;;;;5072119;28;20451;-91
2022/03/03 10:11:41;;;;;;;142.73;62.77;;;;;;;;;;5063097;28;20443;-93
2022/03/03 10:14:08;;;;;;;141.77;62.70;;;;;;;;;;5051008;28;20521;-90
2022/03/03 10:16:34;;;;;;;137.10;61.00;;;;;;;;;;5045469;28;20444;-91
2022/03/03 10:19:03;;;;;;;138.70;61.93;;;;;;;;;;5062017;28;20446;-93
2022/03/03 10:21:32;;;;;;;144.20;62.87;;;;;;;;;;5056396;28;20443;-93
2022/03/03 10:24:15;;;;;;;143.50;63.20;;;;;;;;;;5061261;28;20602;-91
2022/03/03 10:26:44;;;;;;;134.93;59.97;;;;;;;;;;5069399;28;20839;-94
2022/03/03 10:29:16;;;;;;;139.77;62.53;;;;;;;;;;5055910;28;20458;-93
2022/03/03 10:31:46;;;;;;;137.03;61.07;;;;;;;;;;5058611;28;20550;-94
2022/03/03 10:34:16;;;;;;;136.07;62.17;;;;;;;;;;5057628;28;20908;-96
2022/03/03 10:36:55;;;;;;;139.20;60.13;;;;;;;;;;5053960;28;20447;-96
2022/03/03 10:39:21;;;;;;;147.53;64.67;;;;;;;;;;5070300;28;20465;-94
2022/03/03 10:41:48;;;;;;;138.37;62.17;;;;;;;;;;5066598;28;20449;-93
2022/03/03 10:44:15;;;;;;;137.17;61.23;;;;;;;;;;5049626;28;20966;-94
2022/03/03 10:47:00;;;;;;;138.47;61.40;;;;;;;;;;5047132;28;20447;-94
2022/03/03 10:49:27;;;;;;;133.33;60.13;;;;;;;;;;5056913;28;20530;-96
2022/03/03 10:52:08;;;;;;;136.27;59.23;;;;;;;;;;5052472;28;20447;-96
2022/03/03 10:54:48;;;;;;;139.97;63.17;;;;;;;;;;5062372;28;20485;-96
2022/03/03 10:57:29;;;;;;;139.97;64.33;;;;;;;;;;5069573;28;20462;-94
2022/03/03 10:59:56;;;;;;;129.40;58.37;;;;;;;;;;5051249;28;20492;-93
2022/03/03 11:02:22;;;;;;;136.70;60.60;;;;;;;;;;5060778;28;20493;-95
2022/03/03 11:04:48;;;;;;;137.33;56.10;;;;;;;;;;5048703;28;20446;-90
2022/03/03 11:07:18;;;;;;;137.17;58.53;;;;;;;;;;5059299;28;20477;-93
2022/03/03 11:09:45;;;;;;;131.40;58.92;;;;;;;;;;5055077;28;20829;-92
2022/03/03 11:12:11;;;;;;;133.40;60.13;;;;;;;;;;5051650;28;20236;-92
2022/03/03 11:14:39;;;;;;;132.20;58.60;;;;;;;;;;5047868;28;20243;-92
2022/03/03 11:17:06;;;;;;;137.43;60.45;;;;;;;;;;5040443;28;20200;-92
2022/03/03 11:19:33;;;;;;;135.50;62.30;;;;;;;;;;5056538;28;20203;-91
2022/03/03 11:22:00;;;;;;;133.75;59.65;;;;;;;;;;5061703;28;20222;-96
2022/03/03 11:24:28;;;;;;;134.80;58.70;;;;;;;;;;5065890;28;20200;-93
2022/03/03 11:27:00;;;;;;;133.75;60.80;;;;;;;;;;5059180;28;20495;-92
2022/03/03 11:29:27;;;;;;;140.50;64.13;;;;;;;;;;5048907;28;20192;-91
2022/03/03 11:32:03;;;;;;;136.88;59.67;;;;;;;;;;5063946;28;20226;-94
2022/03/03 11:34:40;;;;;;;132.35;60.20;;;;;;;;;;5060708;28;20273;-90
2022/03/03 11:37:08;;;;;;;135.13;60.75;;;;;;;;;;5063629;28;20195;-91
2022/03/03 11:39:37;;;;;;;137.57;60.63;;;;;;;;;;5061791;28;20219;-91
2022/03/03 11:42:17;;;;;;;141.50;62.27;;;;;;;;;;5062497;28;20531;-91
2022/03/03 11:44:43;;;;;;;133.77;60.87;;;;;;;;;;5062615;28;20525;-92
2022/03/03 11:47:16;;;;;;;135.27;60.97;;;;;;;;;;5061671;28;20480;-90
2022/03/03 11:49:57;;;;;;;141.37;64.83;;;;;;;;;;5054482;28;20443;-91
2022/03/03 11:52:24;;;;;;;137.93;61.60;;;;;;;;;;5063087;28;20500;-96
2022/03/03 11:54:56;;;;;;;139.13;63.00;;;;;;;;;;5080171;28;20491;-89
2022/03/03 11:57:27;;;;;;;134.33;60.27;;;;;;;;;;5069027;28;20952;-96
2022/03/03 11:59:54;;;;;;;133.40;60.03;;;;;;;;;;5063142;28;20453;-93
2022/03/03 12:02:27;;;;;;;144.73;61.00;;;;;;;;;;5063996;28;20480;-92
2022/03/03 12:05:08;;;;;;;137.57;61.33;;;;;;;;;;5064686;28;20446;-91
2022/03/03 12:07:35;;;;;;;133.83;60.57;;;;;;;;;;5064024;28;20453;-90
2022/03/03 12:10:12;;;;;;;137.37;61.17;;;;;;;;;;5064327;28;20450;-90
2022/03/03 12:12:39;;;;;;;131.43;57.50;;;;;;;;;;5064872;28;20898;-96
2022/03/03 12:15:06;;;;;;;135.07;61.10;;;;;;;;;;5064988;28;20490;-90
2022/03/03 12:17:42;;;;;;;130.57;58.70;;;;;;;;;;5065298;28;20477;-91
2022/03/03 12:20:30;;;;;;;139.97;61.00;;;;;;;;;;5064692;28;20472;-92
2022/03/03 12:23:00;;;;;;;131.57;60.47;;;;;;;;;;5045728;28;20489;-92
2022/03/03 12:25:45;;;;;;;142.80;63.80;;;;;;;;;;5043168;28;20443;-94
2022/03/03 12:28:16;;;;;;;136.10;61.30;;;;;;;;;;5053392;28;20509;-90
2022/03/03 12:30:43;;;;;;;136.03;59.70;;;;;;;;;;5056051;28;20459;-91
2022/03/03 12:33:20;;;;;;;136.37;61.70;;;;;;;;;;5062015;28;21088;-93
2022/03/03 12:35:47;;;;;;;143.43;62.87;;;;;;;;;;5064176;28;20916;-91
2022/03/03 12:38:13;;;;;;;141.10;62.33;;;;;;;;;;5066806;28;20446;-93
2022/03/03 12:40:40;;;;;;;137.03;61.27;;;;;;;;;;5065699;28;20480;-92
2022/03/03 12:43:11;;;;;;;133.50;58.40;;;;;;;;;;5065523;28;20455;-96
2022/03/03 12:45:39;;;;;;;137.30;61.30;;;;;;;;;;5061724;28;20455;-92
2022/03/03 12:48:07;;;;;;;138.50;61.20;;;;;;;;;;5061991;28;21028;-94
2022/03/03 12:50:34;;;;;;;136.27;62.13;;;;;;;;;;5065894;28;20515;-93
2022/03/03 12:53:02;;;;;;;136.13;61.93;;;;;;;;;;5065325;28;20515;-96
2022/03/03 12:55:30;;;;;;;139.53;61.43;;;;;;;;;;5065324;28;20513;-91
2022/03/03 12:57:56;;;;;;;135.97;61.80;;;;;;;;;;5063643;28;20504;-92
2022/03/03 13:00:24;;;;;;;137.90;61.60;;;;;;;;;;5064231;28;20442;-91
2022/03/03 13:02:54;;;;;;;158.63;72.67;;;;;;;;;;5064846;28;20489;-94
2022/03/03 13:05:46;;;;;;;141.70;64.53;;;;;;;;;;5063716;28;20447;-92
2022/03/03 13:08:22;;;;;;;139.83;62.10;;;;;;;;;;5038543;28;20455;-95
2022/03/03 13:10:49;;;;;;;130.37;58.13;;;;;;;;;;5064370;28;20541;-91
2022/03/03 13:13:16;;;;;;;138.83;61.80;;;;;;;;;;5061766;28;20478;-93
2022/03/03 13:15:43;;;;;;;131.57;58.33;;;;;;;;;;5051061;28;20512;-91
2022/03/03 13:18:19;;;;;;;133.60;58.05;;;;;;;;;;5067643;28;20506;-96
2022/03/03 13:20:52;;;;;;;134.38;60.40;;;;;;;;;;5050625;28;20206;-91
2022/03/03 13:23:19;;;;;;;134.50;60.10;;;;;;;;;;5044090;28;20201;-90
2022/03/03 13:25:45;;;;;;;129.37;58.60;;;;;;;;;;5044099;28;20451;-93
2022/03/03 13:28:25;;;;;;;132.87;59.60;;;;;;;;;;5048588;28;20455;-92
2022/03/03 13:30:52;;;;;;;133.97;60.77;;;;;;;;;;5061361;28;20448;-92
2022/03/03 13:33:40;;;;;;;135.40;60.90;;;;;;;;;;5058774;28;21189;-96
2022/03/03 13:36:11;;;;;;;138.40;61.37;;;;;;;;;;5061985;28;20500;-95
2022/03/03 13:38:39;;;;;;;135.97;61.00;;;;;;;;;;5063859;28;20495;-94
2022/03/03 13:41:28;;;;;;;132.00;58.27;;;;;;;;;;5056705;28;20541;-95
2022/03/03 13:44:14;;;;;;;135.73;59.27;;;;;;;;;;5047654;28;20475;-93
2022/03/03 13:46:41;;;;;;;137.20;61.40;;;;;;;;;;5053405;28;21021;-95
2022/03/03 13:49:18;;;;;;;133.43;59.77;;;;;;;;;;5063936;28;20450;-91
2022/03/03 13:51:59;;;;;;;135.67;59.83;;;;;;;;;;5060569;28;20544;-96
2022/03/03 13:54:26;;;;;;;140.20;62.60;;;;;;;;;;5062852;28;20482;-95
2022/03/03 13:56:52;;;;;;;134.60;59.00;;;;;;;;;;5058003;28;20446;-96
2022/03/03 13:59:22;;;;;;;132.70;59.23;;;;;;;;;;5052264;28;20513;-96
2022/03/03 14:01:51;;;;;;;129.37;57.87;;;;;;;;;;5052340;28;20443;-96
2022/03/03 14:04:20;;;;;;;136.90;60.80;;;;;;;;;;5045777;28;20498;-96
2022/03/03 14:06:47;;;;;;;143.67;62.73;;;;;;;;;;5043083;28;20461;-94
2022/03/03 14:09:22;;;;;;;134.93;58.40;;;;;;;;;;5044552;28;20494;-93
2022/03/03 14:11:58;;;;;;;135.40;60.57;;;;;;;;;;5052745;28;20489;-96
2022/03/03 14:14:28;;;;;;;138.17;61.37;;;;;;;;;;5042349;28;20488;-96